createdAt,value
2019-02-16T00:00:18.834Z,49.70
2019-02-16T00:02:47.224Z,49.70
2019-02-16T00:05:15.715Z,49.60
2019-02-16T00:07:44.079Z,49.40
2019-02-16T00:10:12.400Z,49.40
2019-02-16T00:12:40.678Z,49.30
2019-02-16T00:15:09.136Z,49.30
2019-02-16T00:17:37.456Z,49.30
2019-02-16T00:20:08.477Z,49.10
2019-02-16T00:22:36.835Z,49.00
2019-02-16T00:25:05.727Z,49.00
2019-02-16T00:27:34.081Z,49.10
2019-02-16T00:30:02.362Z,49.10
2019-02-16T00:32:30.758Z,49.10
2019-02-16T00:34:59.039Z,49.10
2019-02-16T00:37:27.316Z,49.10
2019-02-16T00:39:55.644Z,49.20
2019-02-16T00:42:23.996Z,49.00
2019-02-16T00:44:52.272Z,48.90
2019-02-16T00:47:20.660Z,48.90
2019-02-16T00:49:48.940Z,48.90
2019-02-16T00:52:17.219Z,48.90
2019-02-16T00:54:45.591Z,48.80
2019-02-16T00:57:13.943Z,48.70
2019-02-16T00:59:42.219Z,48.60
2019-02-16T01:02:10.600Z,48.60
2019-02-16T01:04:39.279Z,48.70
2019-02-16T01:07:08.136Z,48.80
2019-02-16T01:09:36.531Z,48.80
2019-02-16T01:12:04.808Z,48.60
2019-02-16T01:14:33.187Z,48.60
2019-02-16T01:17:01.552Z,48.60
2019-02-16T01:19:29.900Z,48.60
2019-02-16T01:21:58.177Z,48.70
2019-02-16T01:24:26.498Z,48.80
2019-02-16T01:26:54.912Z,48.60
2019-02-16T01:29:23.188Z,48.50
2019-02-16T01:31:51.491Z,48.30
2019-02-16T01:34:19.851Z,48.40
2019-02-16T01:36:48.199Z,48.50
2019-02-16T01:39:16.584Z,48.40
2019-02-16T01:41:44.864Z,48.50
2019-02-16T01:44:13.147Z,48.40
2019-02-16T01:46:41.458Z,48.40
2019-02-16T01:49:09.734Z,48.30
2019-02-16T01:51:38.020Z,48.40
2019-02-16T01:54:06.322Z,48.40
2019-02-16T01:56:34.598Z,48.30
2019-02-16T01:59:02.875Z,48.30
2019-02-16T02:01:31.268Z,48.40
2019-02-16T02:03:59.623Z,48.20
2019-02-16T02:06:27.903Z,48.50
2019-02-16T02:08:56.420Z,48.30
2019-02-16T02:11:24.765Z,48.20
2019-02-16T02:13:53.047Z,48.20
2019-02-16T02:16:21.365Z,48.20
2019-02-16T02:18:49.718Z,48.00
2019-02-16T02:21:18.003Z,47.90
2019-02-16T02:23:46.387Z,47.90
2019-02-16T02:26:14.667Z,47.90
2019-02-16T02:28:43.016Z,48.00
2019-02-16T02:31:11.325Z,47.80
2019-02-16T02:33:39.734Z,48.00
2019-02-16T02:36:08.027Z,47.70
2019-02-16T02:38:36.347Z,47.90
2019-02-16T02:41:04.726Z,48.00
2019-02-16T02:43:33.007Z,48.00
2019-02-16T02:46:01.339Z,47.90
2019-02-16T02:48:29.706Z,48.50
2019-02-16T02:50:58.107Z,48.00
2019-02-16T02:53:31.186Z,48.40
2019-02-16T02:55:56.473Z,47.70
2019-02-16T02:58:24.755Z,48.00
2019-02-16T03:00:53.136Z,47.90
2019-02-16T03:03:21.429Z,47.80
2019-02-16T03:05:49.919Z,47.80
2019-02-16T03:08:18.236Z,47.90
2019-02-16T03:10:46.882Z,47.60
2019-02-16T03:13:15.188Z,47.50
2019-02-16T03:15:43.501Z,47.60
2019-02-16T03:18:11.781Z,47.60
2019-02-16T03:20:40.059Z,47.70
2019-02-16T03:23:15.931Z,47.80
2019-02-16T03:26:05.709Z,47.70
2019-02-16T03:28:49.407Z,47.70
2019-02-16T03:31:54.139Z,47.60
2019-02-16T03:34:34.563Z,47.60
2019-02-16T03:37:34.671Z,47.60
2019-02-16T03:40:03.049Z,47.50
2019-02-16T03:42:31.361Z,47.40
2019-02-16T03:44:59.679Z,47.30
2019-02-16T03:47:27.983Z,47.40
2019-02-16T03:49:56.263Z,47.70
2019-02-16T03:52:24.546Z,47.50
2019-02-16T03:54:52.857Z,47.50
2019-02-16T03:57:21.135Z,47.50
2019-02-16T03:59:49.687Z,47.10
2019-02-16T04:02:18.125Z,47.40
2019-02-16T04:04:46.400Z,47.60
2019-02-16T04:07:14.693Z,47.90
2019-02-16T04:09:43.063Z,47.80
2019-02-16T04:12:11.492Z,47.70
2019-02-16T04:14:39.767Z,47.60
2019-02-16T04:17:08.082Z,47.50
2019-02-16T04:19:36.371Z,47.50
2019-02-16T04:22:04.788Z,47.20
2019-02-16T04:24:33.129Z,48.00
2019-02-16T04:27:01.483Z,47.40
2019-02-16T04:29:29.825Z,48.00
2019-02-16T04:31:58.134Z,47.40
2019-02-16T04:34:26.415Z,47.50
2019-02-16T04:36:54.772Z,47.90
2019-02-16T04:39:23.079Z,47.50
2019-02-16T04:41:51.436Z,47.30
2019-02-16T04:44:19.726Z,47.90
2019-02-16T04:46:48.102Z,47.80
2019-02-16T04:49:16.379Z,47.80
2019-02-16T04:51:44.656Z,47.70
2019-02-16T04:54:12.991Z,47.80
2019-02-16T04:56:41.330Z,47.90
2019-02-16T04:59:09.695Z,47.90
2019-02-16T05:01:38.064Z,47.80
2019-02-16T05:04:06.359Z,47.90
2019-02-16T05:06:34.702Z,47.90
2019-02-16T05:09:03.854Z,47.70
2019-02-16T05:11:32.137Z,48.00
2019-02-16T05:14:00.756Z,48.00
2019-02-16T05:16:29.165Z,47.90
2019-02-16T05:18:57.518Z,47.90
2019-02-16T05:21:25.863Z,47.40
2019-02-16T05:23:54.191Z,47.50
2019-02-16T05:26:22.468Z,47.70
2019-02-16T05:28:50.745Z,47.60
2019-02-16T05:31:19.144Z,47.70
2019-02-16T05:33:47.427Z,48.00
2019-02-16T05:36:15.780Z,48.10
2019-02-16T05:38:44.342Z,47.80
2019-02-16T05:41:12.896Z,48.00
2019-02-16T05:43:41.419Z,48.00
2019-02-16T05:46:10.018Z,48.00
2019-02-16T05:48:38.576Z,47.70
2019-02-16T05:51:07.064Z,47.90
2019-02-16T05:53:35.715Z,47.70
2019-02-16T05:56:04.282Z,47.80
2019-02-16T05:58:32.775Z,47.90
2019-02-16T06:01:01.388Z,47.80
2019-02-16T06:03:29.814Z,47.70
2019-02-16T06:05:58.365Z,47.80
2019-02-16T06:08:26.887Z,47.70
2019-02-16T06:10:55.450Z,47.80
2019-02-16T06:13:23.930Z,47.70
2019-02-16T06:15:52.798Z,47.40
2019-02-16T06:18:21.367Z,47.50
2019-02-16T06:20:49.922Z,47.10
2019-02-16T06:23:18.482Z,47.40
2019-02-16T06:25:47.198Z,47.70
2019-02-16T06:28:15.749Z,47.50
2019-02-16T06:30:44.266Z,47.70
2019-02-16T06:33:12.750Z,47.60
2019-02-16T06:35:42.865Z,47.60
2019-02-16T06:38:11.511Z,47.60
2019-02-16T06:40:41.145Z,47.90
2019-02-16T06:43:09.872Z,48.10
2019-02-16T06:45:38.504Z,48.10
2019-02-16T06:49:41.694Z,37.00
2019-02-16T06:52:10.255Z,34.50
2019-02-16T06:54:38.839Z,49.40
2019-02-16T06:57:27.508Z,59.80
2019-02-16T06:59:56.017Z,67.80
2019-02-16T07:02:25.878Z,72.50
2019-02-16T07:04:54.407Z,75.10
2019-02-16T07:07:22.891Z,76.10
2019-02-16T07:09:51.391Z,76.50
2019-02-16T07:12:19.986Z,76.30
2019-02-16T07:14:48.490Z,76.20
2019-02-16T07:17:33.691Z,75.80
2019-02-16T07:20:02.180Z,75.30
2019-02-16T07:22:30.739Z,74.40
2019-02-16T07:24:59.258Z,74.70
2019-02-16T07:27:27.672Z,73.80
2019-02-16T07:29:56.155Z,73.10
2019-02-16T07:32:24.749Z,73.10
2019-02-16T07:34:53.228Z,71.70
2019-02-16T07:37:21.711Z,71.10
2019-02-16T07:39:50.227Z,70.70
2019-02-16T07:42:18.711Z,69.60
2019-02-16T07:44:51.565Z,69.20
2019-02-16T07:47:30.717Z,68.60
2019-02-16T07:50:00.773Z,69.10
2019-02-16T07:52:30.890Z,67.30
2019-02-16T07:55:03.967Z,65.50
2019-02-16T07:57:34.020Z,65.10
2019-02-16T08:00:13.334Z,63.60
2019-02-16T08:02:49.315Z,63.00
2019-02-16T08:05:22.274Z,61.40
2019-02-16T08:08:04.463Z,60.00
2019-02-16T08:10:37.306Z,59.30
2019-02-16T08:13:25.367Z,57.60
2019-02-16T08:16:07.452Z,56.60
2019-02-16T08:18:40.770Z,44.90
2019-02-16T08:21:10.835Z,37.30
2019-02-16T08:23:59.253Z,36.20
2019-02-16T08:26:38.231Z,34.50
2019-02-16T08:29:24.590Z,33.00
2019-02-16T08:32:03.860Z,32.40
2019-02-16T08:34:34.030Z,37.60
2019-02-16T08:37:07.070Z,42.30
2019-02-16T08:39:42.697Z,43.70
2019-02-16T08:42:18.672Z,44.50
2019-02-16T08:44:48.788Z,44.80
2019-02-16T08:47:18.944Z,45.80
2019-02-16T08:50:05.608Z,43.30
2019-02-16T08:52:52.004Z,42.30
2019-02-16T08:55:28.220Z,43.40
2019-02-16T08:58:14.570Z,40.30
2019-02-16T09:01:01.291Z,39.80
2019-02-16T09:03:31.372Z,41.40
2019-02-16T09:06:13.358Z,39.10
2019-02-16T09:08:43.516Z,37.80
2019-02-16T09:11:30.240Z,30.10
2019-02-16T09:14:16.650Z,28.80
2019-02-16T09:17:03.150Z,26.60
2019-02-16T09:19:33.549Z,29.00
2019-02-16T09:22:03.680Z,31.30
2019-02-16T09:24:46.033Z,27.90
2019-02-16T09:27:32.555Z,28.00
2019-02-16T09:30:05.419Z,30.60
2019-02-16T09:32:41.267Z,31.70
2019-02-16T09:35:11.364Z,27.40
2019-02-16T09:37:57.749Z,25.00
2019-02-16T09:40:30.599Z,23.80
2019-02-16T09:43:09.487Z,23.30
2019-02-16T09:45:57.819Z,23.00
2019-02-16T09:48:27.948Z,23.20
2019-02-16T09:50:58.014Z,20.90
2019-02-16T09:53:28.114Z,19.70
2019-02-16T09:56:07.231Z,19.80
2019-02-16T09:58:37.315Z,20.00
2019-02-16T10:01:13.239Z,18.50
2019-02-16T10:03:58.496Z,17.60
2019-02-16T10:06:34.704Z,18.20
2019-02-16T10:09:20.815Z,18.50
2019-02-16T10:12:05.954Z,19.60
2019-02-16T10:14:38.804Z,21.10
2019-02-16T10:17:10.041Z,22.00
2019-02-16T10:19:40.228Z,20.80
2019-02-16T10:22:16.787Z,21.60
2019-02-16T10:24:56.042Z,20.20
2019-02-16T10:27:28.887Z,20.10
2019-02-16T10:30:11.179Z,19.60
2019-02-16T10:32:41.347Z,19.30
2019-02-16T10:35:12.385Z,18.80
2019-02-16T10:37:45.231Z,18.30
2019-02-16T10:40:31.387Z,18.00
2019-02-16T10:43:07.519Z,17.20
2019-02-16T10:45:40.304Z,15.60
2019-02-16T10:48:26.951Z,16.00
2019-02-16T10:51:00.179Z,16.30
2019-02-16T10:53:30.252Z,15.50
2019-02-16T10:56:06.264Z,16.20
2019-02-16T10:58:51.282Z,16.90
2019-02-16T11:01:21.246Z,16.00
2019-02-16T11:03:51.262Z,15.10
2019-02-16T11:06:30.257Z,14.50
2019-02-16T11:09:02.924Z,14.90
2019-02-16T11:11:51.048Z,14.40
2019-02-16T11:14:23.443Z,13.80
2019-02-16T11:16:53.725Z,13.50
2019-02-16T11:19:39.355Z,13.10
2019-02-16T11:22:12.356Z,12.90
2019-02-16T11:25:01.613Z,13.40
2019-02-16T11:27:31.710Z,14.10
2019-02-16T11:30:18.314Z,13.90
2019-02-16T11:32:48.399Z,12.80
2019-02-16T11:35:27.483Z,12.60
2019-02-16T11:38:00.506Z,12.50
2019-02-16T11:40:33.542Z,12.90
2019-02-16T11:43:03.634Z,13.80
2019-02-16T11:45:36.426Z,13.50
2019-02-16T11:48:22.687Z,13.20
2019-02-16T11:50:52.815Z,13.40
2019-02-16T11:53:22.880Z,13.30
2019-02-16T11:56:02.029Z,13.60
2019-02-16T11:58:47.138Z,15.60
2019-02-16T12:01:29.515Z,15.30
2019-02-16T12:03:59.583Z,15.80
2019-02-16T12:06:29.680Z,15.70
2019-02-16T12:09:04.010Z,16.10
2019-02-16T12:11:46.093Z,15.90
2019-02-16T12:14:32.747Z,18.40
2019-02-16T12:17:12.071Z,20.20
2019-02-16T12:19:48.264Z,18.40
2019-02-16T12:22:24.914Z,17.60
2019-02-16T12:25:13.409Z,17.70
2019-02-16T12:27:55.916Z,19.30
2019-02-16T12:30:40.777Z,19.30
2019-02-16T12:33:19.509Z,18.90
2019-02-16T12:35:49.603Z,17.50
2019-02-16T12:38:28.477Z,18.90
2019-02-16T12:40:58.564Z,19.00
2019-02-16T12:43:31.404Z,17.90
2019-02-16T12:46:13.734Z,17.30
2019-02-16T12:48:43.875Z,18.80
2019-02-16T12:51:13.940Z,19.50
2019-02-16T12:54:00.475Z,19.90
2019-02-16T12:56:33.645Z,17.90
2019-02-16T12:59:03.785Z,19.80
2019-02-16T13:01:49.064Z,20.10
2019-02-16T13:04:35.514Z,19.30
2019-02-16T13:07:11.624Z,19.10
2019-02-16T13:09:41.773Z,18.20
2019-02-16T13:12:29.547Z,17.70
2019-02-16T13:15:11.554Z,18.60
2019-02-16T13:17:44.497Z,21.10
2019-02-16T13:20:14.636Z,23.10
2019-02-16T13:22:50.843Z,21.20
2019-02-16T13:25:37.598Z,22.00
2019-02-16T13:28:10.980Z,21.60
2019-02-16T13:30:49.988Z,21.40
2019-02-16T13:33:36.105Z,22.90
2019-02-16T13:36:12.146Z,23.80
2019-02-16T13:38:45.036Z,25.30
2019-02-16T13:41:15.136Z,26.40
2019-02-16T13:43:47.921Z,26.70
2019-02-16T13:46:36.099Z,26.80
2019-02-16T13:49:11.654Z,26.20
2019-02-16T13:51:58.326Z,26.70
2019-02-16T13:54:31.139Z,26.90
2019-02-16T13:57:10.187Z,26.20
2019-02-16T13:59:40.318Z,26.30
2019-02-16T14:02:22.399Z,27.00
2019-02-16T14:05:04.527Z,27.10
2019-02-16T14:07:34.638Z,26.80
2019-02-16T14:10:22.793Z,27.70
2019-02-16T14:12:55.443Z,26.60
2019-02-16T14:15:29.561Z,26.80
2019-02-16T14:17:58.238Z,26.60
2019-02-16T14:20:26.700Z,26.30
2019-02-16T14:22:55.183Z,26.40
2019-02-16T14:25:25.241Z,26.30
2019-02-16T14:27:53.765Z,25.70
2019-02-16T14:30:23.760Z,25.50
2019-02-16T14:32:52.305Z,26.30
2019-02-16T14:35:20.895Z,27.20
2019-02-16T14:37:50.959Z,27.80
2019-02-16T14:40:19.507Z,28.50
2019-02-16T14:42:48.130Z,27.40
2019-02-16T14:45:16.695Z,28.40
2019-02-16T14:47:45.195Z,28.40
2019-02-16T14:50:13.714Z,27.90
2019-02-16T14:52:42.235Z,27.60
2019-02-16T14:55:16.115Z,27.00
2019-02-16T14:57:44.650Z,27.80
2019-02-16T15:00:13.340Z,27.60
2019-02-16T15:02:41.904Z,27.40
2019-02-16T15:05:10.494Z,27.40
2019-02-16T15:07:38.979Z,27.40
2019-02-16T15:10:10.615Z,27.30
2019-02-16T15:12:39.184Z,27.70
2019-02-16T15:15:09.378Z,28.20
2019-02-16T15:17:37.739Z,28.20
2019-02-16T15:20:12.249Z,28.30
2019-02-16T15:22:40.538Z,28.50
2019-02-16T15:25:10.836Z,28.70
2019-02-16T15:27:39.598Z,28.90
2019-02-16T15:30:14.455Z,28.90
2019-02-16T15:32:43.445Z,29.00
2019-02-16T15:35:12.138Z,29.80
2019-02-16T15:37:40.620Z,30.00
2019-02-16T15:40:10.445Z,30.60
2019-02-16T15:42:38.976Z,31.50
2019-02-16T15:45:12.191Z,31.50
2019-02-16T15:47:40.788Z,31.90
2019-02-16T15:50:11.283Z,32.50
2019-02-16T15:52:39.870Z,33.00
2019-02-16T15:55:10.392Z,33.40
2019-02-16T15:57:38.891Z,33.70
2019-02-16T16:00:19.806Z,35.20
2019-02-16T16:02:48.335Z,34.80
2019-02-16T16:05:16.895Z,34.70
2019-02-16T16:07:47.053Z,35.50
2019-02-16T16:10:17.190Z,35.90
2019-02-16T16:12:53.564Z,35.80
2019-02-16T16:15:41.576Z,36.30
2019-02-16T16:18:21.055Z,35.40
2019-02-16T16:20:51.131Z,35.80
2019-02-16T16:23:39.701Z,35.40
2019-02-16T16:26:18.845Z,35.80
2019-02-16T16:28:44.679Z,35.50
2019-02-16T16:31:17.204Z,35.60
2019-02-16T16:33:47.459Z,35.50
2019-02-16T16:36:23.268Z,36.10
2019-02-16T16:38:53.340Z,36.20
2019-02-16T16:41:23.477Z,36.30
2019-02-16T16:44:11.695Z,36.50
2019-02-16T16:46:58.336Z,36.90
2019-02-16T16:49:31.363Z,37.30
2019-02-16T16:52:01.503Z,37.30
2019-02-16T16:54:31.655Z,37.40
2019-02-16T16:57:01.805Z,37.40
2019-02-16T16:59:48.365Z,38.00
2019-02-16T17:02:21.376Z,37.50
2019-02-16T17:04:51.388Z,38.00
2019-02-16T17:07:21.303Z,38.20
2019-02-16T17:10:07.819Z,38.10
2019-02-16T17:12:37.735Z,39.50
2019-02-16T17:15:08.666Z,39.70
2019-02-16T17:17:38.627Z,40.40
2019-02-16T17:20:16.395Z,40.50
2019-02-16T17:22:55.040Z,40.70
2019-02-16T17:25:27.651Z,40.90
2019-02-16T17:28:15.911Z,41.00
2019-02-16T17:30:45.830Z,41.20
2019-02-16T17:33:21.713Z,41.40
2019-02-16T17:35:55.291Z,41.30
2019-02-16T17:38:25.243Z,41.40
2019-02-16T17:40:55.160Z,41.60
2019-02-16T17:43:25.192Z,41.80
2019-02-16T17:45:55.233Z,41.70
2019-02-16T17:48:31.026Z,41.90
2019-02-16T17:51:03.868Z,42.20
2019-02-16T17:53:45.838Z,42.20
2019-02-16T17:56:21.274Z,42.20
2019-02-16T17:58:54.178Z,42.60
2019-02-16T18:01:27.076Z,42.40
2019-02-16T18:04:13.315Z,42.70
2019-02-16T18:06:43.263Z,43.00
2019-02-16T18:09:13.179Z,43.20
2019-02-16T18:11:59.344Z,43.50
2019-02-16T18:41:01.988Z,20.70
2019-02-16T18:43:42.352Z,24.40
2019-02-16T18:46:18.423Z,29.90
2019-02-16T18:48:48.437Z,35.90
2019-02-16T18:51:27.395Z,40.00
2019-02-16T18:54:03.324Z,43.10
2019-02-16T18:56:49.724Z,44.70
2019-02-16T18:59:22.696Z,46.00
2019-02-16T19:02:07.418Z,46.90
2019-02-16T19:04:49.714Z,47.30
2019-02-16T19:07:19.727Z,47.50
2019-02-16T19:09:55.611Z,47.90
2019-02-16T19:12:25.706Z,48.00
2019-02-16T19:14:55.712Z,48.40
2019-02-16T19:17:43.820Z,48.60
2019-02-16T19:20:13.833Z,48.80
2019-02-16T19:22:46.343Z,49.00
2019-02-16T19:25:16.319Z,49.10
2019-02-16T19:27:55.366Z,49.00
2019-02-16T19:30:41.386Z,49.30
2019-02-16T19:33:11.397Z,49.40
2019-02-16T19:35:53.653Z,49.40
2019-02-16T19:38:26.673Z,49.60
2019-02-16T19:41:13.536Z,49.70
2019-02-16T19:43:43.527Z,49.90
2019-02-16T19:46:22.336Z,49.90
2019-02-16T19:49:05.169Z,50.20
2019-02-16T19:51:35.459Z,50.40
2019-02-16T19:54:23.372Z,50.70
2019-02-16T19:56:59.396Z,51.50
2019-02-16T19:59:32.195Z,51.40
2019-02-16T20:02:04.994Z,51.70
2019-02-16T20:04:50.433Z,51.80
2019-02-16T20:07:30.526Z,52.10
2019-02-16T20:10:00.447Z,52.40
2019-02-16T20:12:40.667Z,52.70
2019-02-16T20:15:10.715Z,52.90
2019-02-16T20:17:42.683Z,53.20
2019-02-16T20:20:17.487Z,53.40
2019-02-16T20:22:57.916Z,53.90
2019-02-16T20:25:30.407Z,54.40
2019-02-16T20:28:01.955Z,54.70
2019-02-16T20:30:40.971Z,54.70
2019-02-16T20:33:13.892Z,55.30
2019-02-16T20:35:43.911Z,55.80
2019-02-16T20:38:34.901Z,56.20
2019-02-16T20:41:07.856Z,56.90
2019-02-16T20:43:45.183Z,57.10
2019-02-16T20:46:33.415Z,57.60
2019-02-16T20:49:23.568Z,58.10
2019-02-16T20:52:05.436Z,58.50
2019-02-16T20:54:44.485Z,59.00
2019-02-16T20:57:20.052Z,59.30
2019-02-16T20:59:55.604Z,59.50
2019-02-16T21:02:55.608Z,60.10
2019-02-16T21:05:33.270Z,60.10
2019-02-16T21:08:20.241Z,60.60
2019-02-16T21:10:50.442Z,61.00
2019-02-16T21:13:20.520Z,61.90
2019-02-16T21:15:56.067Z,62.00
2019-02-16T21:18:28.959Z,62.20
2019-02-16T21:21:11.395Z,62.50
2019-02-16T21:23:50.631Z,62.40
2019-02-16T21:26:36.555Z,62.60
2019-02-16T21:29:12.709Z,63.00
2019-02-16T21:31:42.546Z,63.30
2019-02-16T21:34:15.383Z,63.50
2019-02-16T21:37:03.603Z,63.70
2019-02-16T21:39:39.656Z,64.40
2019-02-16T21:42:12.783Z,65.00
2019-02-16T21:44:46.798Z,68.00
2019-02-16T21:47:30.273Z,65.20
2019-02-16T21:50:12.123Z,65.30
2019-02-16T21:52:46.399Z,65.60
2019-02-16T21:55:32.706Z,65.80
2019-02-16T21:58:20.037Z,65.90
2019-02-16T22:00:56.296Z,66.10
2019-02-16T22:03:45.935Z,65.80
2019-02-16T22:06:31.895Z,65.60
2019-02-16T22:09:04.852Z,65.50
2019-02-16T22:11:34.987Z,65.20
2019-02-16T22:14:03.554Z,65.70
2019-02-16T22:16:32.160Z,65.90
2019-02-16T22:19:02.524Z,66.20
2019-02-16T22:21:31.071Z,66.30
2019-02-16T22:23:59.687Z,66.20
2019-02-16T22:26:28.270Z,66.20
2019-02-16T22:28:56.759Z,66.00
2019-02-16T22:31:25.294Z,65.80
2019-02-16T22:33:53.857Z,65.50
2019-02-16T22:36:22.431Z,65.60
2019-02-16T22:38:50.972Z,65.50
2019-02-16T22:41:19.270Z,66.10
2019-02-16T22:43:47.609Z,66.30
2019-02-16T22:46:16.207Z,66.50
2019-02-16T22:48:44.483Z,66.50
2019-02-16T22:51:12.859Z,66.60
2019-02-16T22:53:41.224Z,66.60
2019-02-16T22:56:09.643Z,66.70
2019-02-16T22:58:37.911Z,66.80
2019-02-16T23:01:06.235Z,66.90
2019-02-16T23:03:34.510Z,66.40
2019-02-16T23:06:02.796Z,66.80
2019-02-16T23:08:31.185Z,66.30
2019-02-16T23:10:59.746Z,67.10
2019-02-16T23:13:28.096Z,67.60
2019-02-16T23:15:56.484Z,67.50
2019-02-16T23:18:24.776Z,66.90
2019-02-16T23:20:53.052Z,66.40
2019-02-16T23:23:24.232Z,66.20
2019-02-16T23:25:52.516Z,66.20
2019-02-16T23:28:20.828Z,66.30
2019-02-16T23:30:49.178Z,66.20
2019-02-16T23:33:17.714Z,66.20
2019-02-16T23:35:46.199Z,66.30
2019-02-16T23:38:14.717Z,66.50
2019-02-16T23:40:43.236Z,66.40
2019-02-16T23:43:11.806Z,66.20
2019-02-16T23:45:40.330Z,66.00
2019-02-16T23:48:09.207Z,66.00
2019-02-16T23:50:37.711Z,66.00
2019-02-16T23:53:06.313Z,66.00
2019-02-16T23:55:34.950Z,65.60
2019-02-16T23:58:03.428Z,65.20
